createdAt,value
2022-08-26T13:16:08.149Z,5.25
2022-08-26T13:18:35.717Z,6.20
2022-08-26T13:21:09.457Z,5.32
2022-08-26T13:23:40.591Z,5.47
2022-08-26T13:26:09.636Z,5.65
2022-08-26T13:28:36.746Z,6.10
2022-08-26T13:31:05.145Z,5.18
2022-08-26T13:33:33.268Z,5.82
2022-08-26T13:36:01.585Z,6.20
2022-08-26T13:38:33.034Z,6.30
2022-08-26T13:41:02.736Z,7.68
2022-08-26T13:43:31.425Z,6.03
2022-08-26T13:45:58.761Z,6.47
2022-08-26T13:48:26.406Z,6.32
2022-08-26T13:50:54.080Z,6.25
2022-08-26T13:53:21.698Z,5.22
2022-08-26T13:55:49.393Z,6.50
2022-08-26T13:58:17.363Z,6.03
2022-08-26T14:00:44.859Z,6.10
2022-08-26T14:03:13.528Z,6.00
2022-08-26T14:05:40.871Z,5.63
2022-08-26T14:08:08.421Z,6.50
2022-08-26T14:10:36.201Z,6.38
2022-08-26T14:13:04.034Z,6.00
2022-08-26T14:15:37.028Z,5.85
2022-08-26T14:18:05.936Z,6.05
2022-08-26T14:20:36.887Z,7.00
2022-08-26T14:23:13.783Z,6.22
2022-08-26T14:25:42.341Z,6.22
2022-08-26T14:28:09.632Z,6.40
2022-08-26T14:30:40.211Z,6.80
2022-08-26T14:33:10.747Z,6.50
2022-08-26T14:35:38.152Z,6.13
2022-08-26T14:38:05.336Z,7.13
2022-08-26T14:40:33.992Z,6.18
2022-08-26T14:43:06.154Z,6.15
2022-08-26T14:45:37.850Z,6.00
2022-08-26T14:48:05.126Z,5.88
2022-08-26T14:50:32.830Z,5.55
2022-08-26T14:53:19.173Z,5.63
2022-08-26T14:55:47.015Z,6.13
2022-08-26T14:58:14.083Z,5.90
2022-08-26T15:00:41.208Z,6.07
2022-08-26T15:03:08.495Z,6.05
2022-08-26T15:05:35.648Z,6.68
2022-08-26T15:08:04.721Z,6.70
2022-08-26T15:10:31.941Z,6.43
2022-08-26T15:12:59.688Z,5.88
2022-08-26T15:15:27.623Z,6.57
2022-08-26T15:17:56.287Z,6.50
2022-08-26T15:20:23.475Z,6.53
2022-08-26T15:22:50.621Z,6.85
2022-08-26T15:25:18.622Z,7.93
2022-08-26T15:27:45.776Z,7.07
2022-08-26T15:30:13.544Z,6.97
2022-08-26T15:32:40.674Z,8.60
2022-08-26T15:35:09.306Z,8.00
2022-08-26T15:37:36.788Z,7.45
2022-08-26T15:40:05.315Z,9.30
2022-08-26T15:42:32.642Z,7.78
2022-08-26T15:44:59.777Z,8.07
2022-08-26T15:47:26.975Z,7.93
2022-08-26T15:49:55.650Z,7.80
2022-08-26T15:52:22.752Z,8.32
2022-08-26T15:54:49.889Z,8.50
2022-08-26T15:57:19.283Z,7.65
2022-08-26T15:59:46.968Z,10.25
2022-08-26T16:02:14.323Z,9.38
2022-08-26T16:04:42.019Z,8.50
2022-08-26T16:07:10.718Z,8.25
2022-08-26T16:09:37.855Z,8.50
2022-08-26T16:12:05.530Z,8.98
2022-08-26T16:14:33.128Z,7.72
2022-08-26T16:17:00.284Z,8.80
2022-08-26T16:19:29.020Z,8.70
2022-08-26T16:21:56.078Z,8.70
2022-08-26T16:24:27.183Z,8.23
2022-08-26T16:26:57.427Z,8.45
2022-08-26T16:29:24.715Z,8.73
2022-08-26T16:31:53.422Z,9.02
2022-08-26T16:34:21.245Z,8.27
2022-08-26T16:36:48.665Z,8.10
2022-08-26T16:39:15.822Z,8.20
2022-08-26T16:41:44.157Z,8.32
2022-08-26T16:44:12.093Z,9.10
2022-08-26T16:46:39.765Z,9.00
2022-08-26T16:49:07.109Z,8.27
2022-08-26T16:51:37.636Z,8.63
2022-08-26T16:54:07.520Z,8.80
2022-08-26T16:56:35.229Z,9.48
2022-08-26T16:59:05.248Z,10.18
2022-08-26T17:01:32.687Z,9.10
2022-08-26T17:04:01.157Z,9.30
2022-08-26T17:06:28.496Z,9.63
2022-08-26T17:08:55.711Z,9.38
2022-08-26T17:11:22.855Z,9.35
2022-08-26T17:13:50.251Z,10.02
2022-08-26T17:16:17.686Z,9.77
2022-08-26T17:18:44.865Z,10.63
2022-08-26T17:21:13.742Z,11.30
2022-08-26T17:23:42.426Z,10.32
2022-08-26T17:26:12.225Z,10.88
2022-08-26T17:28:40.382Z,10.98
2022-08-26T17:31:11.057Z,10.57
2022-08-26T17:33:39.145Z,9.98
2022-08-26T17:36:08.662Z,10.60
2022-08-26T17:38:37.807Z,11.23
2022-08-26T17:41:14.220Z,12.93
2022-08-26T17:43:41.614Z,10.98
2022-08-26T17:46:10.678Z,10.57
2022-08-26T17:48:39.466Z,12.50
2022-08-26T17:51:12.656Z,12.20
2022-08-26T17:53:41.535Z,10.43
2022-08-26T17:56:13.505Z,11.15
2022-08-26T17:58:51.435Z,11.00
2022-08-26T18:01:21.721Z,10.50
2022-08-26T18:03:50.199Z,10.48
2022-08-26T18:06:17.415Z,10.70
2022-08-26T18:08:45.189Z,11.10
2022-08-26T18:11:15.334Z,10.90
2022-08-26T18:13:47.163Z,11.25
2022-08-26T18:16:16.804Z,11.40
2022-08-26T18:18:44.348Z,11.65
2022-08-26T18:21:14.330Z,12.00
2022-08-26T18:23:42.131Z,11.93
2022-08-26T18:26:09.642Z,11.27
2022-08-26T18:28:39.842Z,12.05
2022-08-26T18:31:09.081Z,11.77
2022-08-26T18:33:36.349Z,11.98
2022-08-26T18:36:04.492Z,11.50
2022-08-26T18:38:31.790Z,11.85
2022-08-26T18:41:03.823Z,11.90
2022-08-26T18:43:31.123Z,11.93
2022-08-26T18:46:06.071Z,11.82
2022-08-26T18:48:33.475Z,11.55
2022-08-26T18:51:01.297Z,12.85
2022-08-26T18:53:29.813Z,11.98
2022-08-26T18:55:57.626Z,11.98
2022-08-26T18:58:25.604Z,12.32
2022-08-26T19:00:53.349Z,12.05
2022-08-26T19:03:20.521Z,12.13
2022-08-26T19:05:48.265Z,11.90
2022-08-26T19:08:15.463Z,12.85
2022-08-26T19:10:42.578Z,13.57
2022-08-26T19:13:10.087Z,12.80
2022-08-26T19:15:40.441Z,13.20
2022-08-26T19:18:11.505Z,13.20
2022-08-26T19:20:46.462Z,13.02
2022-08-26T19:23:30.899Z,16.10
2022-08-26T19:26:03.200Z,13.98
2022-08-26T19:28:30.420Z,13.77
2022-08-26T19:30:57.619Z,14.55
2022-08-26T19:33:25.876Z,13.20
2022-08-26T19:35:58.799Z,13.98
2022-08-26T19:38:26.056Z,13.82
2022-08-26T19:40:55.183Z,13.75
2022-08-26T19:43:26.773Z,13.52
2022-08-26T19:45:54.069Z,14.30
2022-08-26T19:48:21.283Z,14.00
2022-08-26T19:50:48.434Z,14.20
2022-08-26T19:53:15.759Z,15.07
2022-08-26T19:55:43.086Z,14.80
2022-08-26T19:58:11.765Z,14.82
2022-08-26T20:00:40.014Z,15.00
2022-08-26T20:03:08.762Z,14.95
2022-08-26T20:08:07.668Z,14.55
2022-08-26T20:10:39.433Z,14.43
2022-08-26T20:13:07.920Z,15.23
2022-08-26T20:15:36.012Z,14.30
2022-08-26T20:18:03.529Z,16.52
2022-08-26T20:20:49.364Z,14.68
2022-08-26T20:23:17.672Z,14.98
2022-08-26T20:25:46.753Z,16.15
2022-08-26T20:28:13.852Z,16.25
2022-08-26T20:30:40.948Z,16.50
2022-08-26T20:33:08.260Z,15.00
2022-08-26T20:35:35.480Z,15.73
2022-08-26T20:38:02.607Z,15.95
2022-08-26T20:40:30.268Z,15.63
2022-08-26T20:42:57.388Z,14.65
2022-08-26T20:45:24.544Z,13.90
2022-08-26T20:47:52.538Z,14.63
2022-08-26T20:50:19.894Z,14.57
2022-08-26T20:52:47.385Z,14.45
2022-08-26T20:55:14.803Z,16.15
2022-08-26T20:57:43.337Z,16.08
2022-08-26T21:00:13.711Z,16.10
2022-08-26T21:02:42.460Z,15.85
2022-08-26T21:05:09.926Z,16.73
2022-08-26T21:07:38.434Z,16.73
2022-08-26T21:10:06.603Z,15.93
2022-08-26T21:12:33.828Z,16.52
2022-08-26T21:15:01.158Z,15.55
2022-08-26T21:17:28.290Z,15.50
2022-08-26T21:19:56.422Z,15.75
2022-08-26T21:22:24.095Z,14.93
2022-08-26T21:24:51.377Z,15.70
2022-08-26T21:27:23.086Z,16.15
2022-08-26T21:29:54.202Z,15.38
2022-08-26T21:32:21.598Z,17.08
2022-08-26T21:34:48.944Z,17.15
2022-08-26T21:37:16.907Z,16.98
2022-08-26T21:39:44.429Z,16.13
2022-08-26T21:42:11.536Z,16.10
2022-08-26T21:44:38.985Z,16.58
2022-08-26T21:47:07.233Z,15.52
2022-08-26T21:49:35.483Z,16.85
2022-08-26T21:52:04.834Z,16.33
2022-08-26T21:54:36.777Z,16.45
2022-08-26T21:57:04.475Z,17.00
2022-08-26T21:59:31.682Z,16.15
2022-08-26T22:01:59.256Z,16.17
2022-08-26T22:04:26.676Z,15.45
2022-08-26T22:07:01.976Z,16.63
2022-08-26T22:09:33.630Z,15.98
2022-08-26T22:12:01.442Z,16.92
2022-08-26T22:14:30.922Z,15.40
2022-08-26T22:16:59.204Z,15.38
2022-08-26T22:19:26.889Z,15.93
2022-08-26T22:21:57.750Z,15.50
2022-08-26T22:24:27.453Z,15.60
2022-08-26T22:26:55.971Z,15.73
2022-08-26T22:29:24.484Z,14.55
2022-08-26T22:31:51.818Z,15.00
2022-08-26T22:34:20.689Z,14.48
2022-08-26T22:36:50.096Z,14.63
2022-08-26T22:39:21.195Z,15.65
2022-08-26T22:41:48.937Z,15.93
2022-08-26T22:44:17.718Z,15.57
2022-08-26T22:46:46.198Z,16.02
2022-08-26T22:49:17.578Z,25.13
2022-08-26T22:51:45.743Z,20.50
2022-08-26T22:54:14.184Z,16.13
2022-08-26T22:56:42.375Z,14.88
2022-08-26T22:59:10.126Z,14.98
2022-08-26T23:01:40.513Z,15.05
2022-08-26T23:04:08.234Z,16.80
2022-08-26T23:06:43.111Z,16.67
2022-08-26T23:09:11.257Z,15.57
2022-08-26T23:11:42.298Z,15.07
2022-08-26T23:14:09.700Z,14.40
2022-08-26T23:16:39.366Z,13.93
2022-08-26T23:19:10.687Z,13.85
2022-08-26T23:21:38.317Z,14.48
2022-08-26T23:24:07.091Z,13.55
2022-08-26T23:26:34.952Z,18.45
2022-08-26T23:29:02.983Z,16.52
2022-08-26T23:31:30.280Z,14.57
2022-08-26T23:34:15.909Z,14.90
2022-08-26T23:36:45.685Z,14.77
2022-08-26T23:39:14.768Z,14.68
2022-08-26T23:41:42.076Z,14.70
2022-08-26T23:44:09.467Z,13.88
2022-08-26T23:46:37.104Z,14.38
2022-08-26T23:49:04.748Z,13.50
2022-08-26T23:51:50.308Z,13.73
2022-08-26T23:54:17.675Z,15.20
2022-08-26T23:56:44.941Z,13.95
2022-08-26T23:59:12.178Z,14.23
